createdAt,value
2023-01-06T00:00:16.058Z,17.58
2023-01-06T00:02:49.525Z,20.70
2023-01-06T00:05:16.679Z,20.33
2023-01-06T00:07:43.871Z,24.80
2023-01-06T00:10:18.517Z,19.95
2023-01-06T00:12:55.633Z,18.55
2023-01-06T00:15:22.721Z,18.60
2023-01-06T00:17:49.834Z,17.27
2023-01-06T00:20:23.519Z,15.63
2023-01-06T00:22:50.727Z,16.02
2023-01-06T00:25:24.543Z,17.98
2023-01-06T00:27:51.987Z,18.20
2023-01-06T00:30:25.534Z,17.48
2023-01-06T00:32:53.944Z,20.33
2023-01-06T00:35:29.068Z,21.85
2023-01-06T00:37:58.062Z,19.13
2023-01-06T00:40:31.750Z,18.08
2023-01-06T00:42:59.977Z,18.95
2023-01-06T00:45:26.970Z,17.77
2023-01-06T00:48:00.479Z,18.88
2023-01-06T00:50:27.902Z,18.25
2023-01-06T00:53:01.883Z,17.63
2023-01-06T00:55:36.453Z,16.77
2023-01-06T00:58:10.063Z,15.77
2023-01-06T01:00:37.093Z,18.63
2023-01-06T01:03:10.556Z,21.63
2023-01-06T01:05:38.204Z,21.80
2023-01-06T01:08:12.501Z,27.27
2023-01-06T01:10:39.946Z,22.95
2023-01-06T01:13:13.474Z,21.23
2023-01-06T01:15:40.487Z,24.52
2023-01-06T01:18:14.467Z,25.83
2023-01-06T01:20:42.017Z,21.00
2023-01-06T01:23:10.119Z,22.88
2023-01-06T01:25:44.253Z,23.17
2023-01-06T01:28:24.601Z,19.83
2023-01-06T01:31:10.855Z,20.33
2023-01-06T01:33:44.553Z,22.58
2023-01-06T01:36:14.373Z,19.95
2023-01-06T01:38:42.588Z,18.45
2023-01-06T01:41:22.545Z,16.75
2023-01-06T01:44:10.511Z,16.08
2023-01-06T01:46:41.403Z,18.27
2023-01-06T01:49:29.508Z,16.67
2023-01-06T01:51:56.577Z,17.27
2023-01-06T01:54:35.561Z,15.07
2023-01-06T01:57:13.529Z,17.40
2023-01-06T01:59:48.262Z,17.83
2023-01-06T02:02:16.291Z,16.15
2023-01-06T02:04:54.466Z,17.48
2023-01-06T02:07:26.037Z,14.98
2023-01-06T02:10:25.363Z,16.38
2023-01-06T02:13:05.551Z,16.58
2023-01-06T02:15:33.108Z,15.40
2023-01-06T02:18:30.584Z,17.80
2023-01-06T02:21:13.648Z,21.40
2023-01-06T02:24:17.273Z,21.50
2023-01-06T02:27:19.396Z,21.55
2023-01-06T02:30:14.526Z,22.05
2023-01-06T02:32:48.637Z,20.38
2023-01-06T02:35:28.541Z,21.25
2023-01-06T02:38:04.161Z,22.10
2023-01-06T02:41:36.534Z,20.00
2023-01-06T02:44:25.181Z,21.42
2023-01-06T02:47:28.544Z,20.08
2023-01-06T02:50:35.239Z,20.00
2023-01-06T02:53:39.569Z,19.70
2023-01-06T02:56:06.625Z,18.08
2023-01-06T02:58:54.537Z,21.17
2023-01-06T03:01:38.653Z,20.92
2023-01-06T03:04:16.568Z,20.75
2023-01-06T03:06:45.151Z,23.42
2023-01-06T03:09:24.536Z,22.45
2023-01-06T03:11:51.859Z,20.88
2023-01-06T03:14:43.507Z,20.60
2023-01-06T03:17:10.539Z,23.65
2023-01-06T03:19:44.558Z,21.05
2023-01-06T03:22:11.724Z,19.98
2023-01-06T03:24:45.525Z,19.60
2023-01-06T03:27:19.596Z,19.65
2023-01-06T03:29:53.569Z,25.50
2023-01-06T03:32:38.301Z,21.73
2023-01-06T03:35:38.531Z,25.70
2023-01-06T03:38:30.586Z,21.33
2023-01-06T03:41:17.555Z,21.60
2023-01-06T03:44:07.048Z,20.48
2023-01-06T03:46:58.585Z,23.00
2023-01-06T03:49:30.416Z,20.50
2023-01-06T03:52:34.519Z,24.00
2023-01-06T03:55:08.572Z,25.02
2023-01-06T03:57:44.654Z,25.70
2023-01-06T04:00:36.611Z,25.35
2023-01-06T04:03:07.481Z,21.75
2023-01-06T04:05:40.613Z,26.42
2023-01-06T04:08:14.672Z,22.63
2023-01-06T04:10:41.649Z,20.40
2023-01-06T04:13:15.610Z,20.38
2023-01-06T04:15:42.617Z,22.55
2023-01-06T04:18:16.634Z,17.83
2023-01-06T04:20:43.637Z,18.42
2023-01-06T04:23:17.695Z,18.35
2023-01-06T04:25:45.095Z,20.65
2023-01-06T04:28:12.174Z,21.67
2023-01-06T04:30:45.590Z,23.02
2023-01-06T04:33:12.641Z,26.65
2023-01-06T04:35:46.612Z,24.33
2023-01-06T04:38:13.604Z,23.67
2023-01-06T04:40:44.461Z,22.95
2023-01-06T04:43:17.581Z,24.60
2023-01-06T04:45:51.591Z,26.88
2023-01-06T04:48:18.573Z,28.13
2023-01-06T04:50:45.523Z,24.83
2023-01-06T04:53:19.604Z,21.83
2023-01-06T04:55:53.612Z,26.23
2023-01-06T04:58:20.675Z,24.42
2023-01-06T05:00:47.617Z,21.13
2023-01-06T05:03:21.598Z,21.55
2023-01-06T05:05:48.589Z,21.05
2023-01-06T05:08:21.581Z,22.52
2023-01-06T05:10:54.566Z,22.70
2023-01-06T05:13:27.567Z,21.17
2023-01-06T05:15:54.502Z,22.35
2023-01-06T05:18:21.456Z,21.98
2023-01-06T05:20:58.583Z,21.13
2023-01-06T05:23:31.604Z,20.38
2023-01-06T05:25:58.587Z,20.38
2023-01-06T05:28:25.687Z,21.90
2023-01-06T05:30:59.673Z,21.05
2023-01-06T05:33:26.723Z,19.30
2023-01-06T05:36:07.604Z,21.05
2023-01-06T05:38:34.738Z,20.50
2023-01-06T05:41:08.657Z,20.77
2023-01-06T05:43:42.626Z,23.42
2023-01-06T05:46:10.759Z,22.10
2023-01-06T05:48:44.694Z,22.40
2023-01-06T05:51:15.286Z,21.13
2023-01-06T05:53:50.616Z,22.45
2023-01-06T05:56:27.604Z,20.52
2023-01-06T05:58:54.559Z,19.98
2023-01-06T06:01:30.646Z,20.45
2023-01-06T06:03:58.024Z,17.27
2023-01-06T06:06:32.648Z,19.63
2023-01-06T06:08:59.804Z,20.90
2023-01-06T06:11:26.812Z,20.63
2023-01-06T06:14:01.683Z,18.65
2023-01-06T06:16:35.739Z,18.88
2023-01-06T06:19:02.830Z,18.80
2023-01-06T06:21:37.617Z,18.95
2023-01-06T06:24:11.714Z,17.15
2023-01-06T06:26:45.680Z,17.98
2023-01-06T06:29:12.734Z,18.90
2023-01-06T06:31:46.692Z,20.80
2023-01-06T06:34:14.002Z,23.73
2023-01-06T06:36:47.626Z,20.73
2023-01-06T06:39:14.630Z,18.20
2023-01-06T06:41:48.709Z,17.33
2023-01-06T06:44:28.647Z,20.00
2023-01-06T06:46:55.612Z,23.80
2023-01-06T06:49:28.697Z,20.20
2023-01-06T06:52:02.614Z,20.95
2023-01-06T06:54:29.556Z,20.00
2023-01-06T06:57:02.680Z,21.42
2023-01-06T06:59:29.741Z,20.05
2023-01-06T07:01:56.957Z,23.10
2023-01-06T07:04:30.690Z,18.17
2023-01-06T07:07:04.681Z,19.67
2023-01-06T07:09:31.797Z,19.10
2023-01-06T07:12:05.737Z,20.38
2023-01-06T07:14:32.764Z,19.95
2023-01-06T07:17:09.747Z,18.70
2023-01-06T07:19:43.651Z,17.63
2023-01-06T07:22:10.557Z,20.10
2023-01-06T07:24:43.679Z,18.05
2023-01-06T07:27:10.612Z,19.80
2023-01-06T07:29:44.712Z,18.55
2023-01-06T07:32:11.703Z,20.20
2023-01-06T07:34:45.677Z,19.33
2023-01-06T07:37:12.646Z,18.98
2023-01-06T07:39:45.729Z,17.02
2023-01-06T07:42:12.874Z,15.82
2023-01-06T07:44:46.737Z,17.67
2023-01-06T07:47:14.524Z,17.23
2023-01-06T07:49:47.647Z,17.42
2023-01-06T07:52:20.706Z,18.02
2023-01-06T07:54:47.931Z,18.55
2023-01-06T07:57:21.741Z,15.18
2023-01-06T07:59:48.803Z,19.60
2023-01-06T08:02:15.749Z,18.65
2023-01-06T08:04:49.679Z,21.17
2023-01-06T08:07:23.655Z,24.33
2023-01-06T08:09:50.646Z,19.73
2023-01-06T08:12:23.752Z,16.15
2023-01-06T08:14:50.695Z,18.95
2023-01-06T08:17:17.786Z,21.77
2023-01-06T08:19:51.684Z,20.15
2023-01-06T08:22:18.694Z,20.02
2023-01-06T08:24:51.762Z,22.98
2023-01-06T08:27:18.667Z,18.23
2023-01-06T08:29:52.686Z,22.67
2023-01-06T08:32:19.710Z,22.10
2023-01-06T08:34:53.670Z,21.80
2023-01-06T08:37:20.724Z,25.00
2023-01-06T08:39:54.703Z,21.52
2023-01-06T08:42:21.838Z,23.58
2023-01-06T08:44:55.953Z,21.65
2023-01-06T08:47:23.134Z,23.85
2023-01-06T08:49:56.666Z,23.85
2023-01-06T08:52:24.095Z,20.67
2023-01-06T08:54:57.658Z,22.00
2023-01-06T08:57:24.667Z,21.33
2023-01-06T08:59:51.612Z,20.42
2023-01-06T09:02:24.736Z,20.45
2023-01-06T09:04:57.699Z,25.02
2023-01-06T09:07:24.805Z,23.23
2023-01-06T09:09:51.874Z,23.60
2023-01-06T09:12:25.690Z,24.90
2023-01-06T09:14:52.685Z,25.77
2023-01-06T09:17:25.769Z,27.77
2023-01-06T09:19:53.198Z,22.88
2023-01-06T09:22:20.051Z,24.40
2023-01-06T09:24:53.691Z,23.35
2023-01-06T09:27:22.729Z,22.42
2023-01-06T09:29:56.718Z,24.58
2023-01-06T09:32:23.632Z,27.33
2023-01-06T09:34:56.633Z,24.15
2023-01-06T09:37:23.518Z,25.38
2023-01-06T09:39:50.429Z,24.20
2023-01-06T09:42:48.725Z,20.95
2023-01-06T09:45:20.655Z,24.05
2023-01-06T09:48:02.737Z,22.70
2023-01-06T09:50:48.733Z,20.23
2023-01-06T09:53:49.988Z,19.85
2023-01-06T09:56:23.709Z,22.08
2023-01-06T09:59:14.729Z,22.90
2023-01-06T10:01:46.017Z,23.45
2023-01-06T10:04:34.691Z,20.58
2023-01-06T10:07:21.638Z,21.35
2023-01-06T10:10:30.743Z,18.45
2023-01-06T10:13:26.771Z,19.83
2023-01-06T10:16:24.750Z,18.92
2023-01-06T10:19:11.914Z,17.75
2023-01-06T10:21:52.748Z,20.30
2023-01-06T10:24:31.734Z,17.05
2023-01-06T10:27:02.310Z,21.45
2023-01-06T10:29:38.715Z,19.17
2023-01-06T10:32:05.663Z,21.65
2023-01-06T10:34:39.763Z,21.27
2023-01-06T10:37:44.678Z,20.10
2023-01-06T10:40:27.814Z,21.13
2023-01-06T10:43:14.688Z,20.38
2023-01-06T10:45:47.013Z,20.40
2023-01-06T10:48:25.751Z,22.00
2023-01-06T10:50:52.829Z,20.58
2023-01-06T10:53:25.739Z,19.48
2023-01-06T10:56:08.708Z,21.98
2023-01-06T10:58:43.426Z,20.65
2023-01-06T11:01:33.863Z,20.52
2023-01-06T11:04:16.708Z,18.73
2023-01-06T11:06:53.986Z,20.60
2023-01-06T11:09:49.791Z,20.05
2023-01-06T11:12:20.635Z,21.15
2023-01-06T11:15:03.727Z,22.50
2023-01-06T11:17:31.056Z,20.20
2023-01-06T11:20:20.766Z,20.27
2023-01-06T11:22:54.867Z,21.80
2023-01-06T11:25:21.800Z,21.75
2023-01-06T11:28:19.102Z,21.60
2023-01-06T11:31:02.718Z,19.33
2023-01-06T11:33:32.243Z,21.88
2023-01-06T11:36:06.232Z,20.27
2023-01-06T11:38:39.748Z,21.17
2023-01-06T11:41:09.595Z,19.60
2023-01-06T11:43:42.734Z,25.70
2023-01-06T11:46:16.041Z,25.63
2023-01-06T11:48:47.325Z,22.70
2023-01-06T11:51:21.432Z,27.00
2023-01-06T11:53:57.823Z,24.33
2023-01-06T11:56:31.768Z,31.48
2023-01-06T11:59:15.800Z,25.33
2023-01-06T12:01:51.545Z,21.83
2023-01-06T12:04:53.745Z,20.23
2023-01-06T12:07:41.434Z,19.17
2023-01-06T12:10:27.743Z,19.48
2023-01-06T12:13:01.447Z,20.60
2023-01-06T12:15:35.789Z,19.58
2023-01-06T12:18:08.445Z,22.40
2023-01-06T12:20:47.061Z,21.63
2023-01-06T12:23:28.525Z,23.05
2023-01-06T12:26:20.814Z,23.88
2023-01-06T12:28:55.773Z,25.23
2023-01-06T12:31:34.460Z,21.08
2023-01-06T12:34:23.792Z,26.70
2023-01-06T12:37:02.010Z,23.10
2023-01-06T12:40:05.826Z,24.92
2023-01-06T12:42:58.254Z,24.13
2023-01-06T12:45:49.766Z,24.25
2023-01-06T12:48:49.780Z,26.13
2023-01-06T12:51:20.179Z,22.45
2023-01-06T12:54:40.893Z,23.88
2023-01-06T13:01:12.035Z,24.73
2023-01-06T13:04:25.321Z,22.35
2023-01-06T13:07:33.830Z,21.45
2023-01-06T13:10:07.323Z,22.80
2023-01-06T13:12:56.313Z,20.83
2023-01-06T13:15:40.341Z,21.05
2023-01-06T13:18:51.859Z,35.55
2023-01-06T13:21:20.560Z,24.48
2023-01-06T13:24:25.790Z,22.25
2023-01-06T13:27:47.861Z,22.50
2023-01-06T13:30:46.095Z,20.63
2023-01-06T13:33:37.869Z,18.20
2023-01-06T13:36:58.899Z,20.10
2023-01-06T13:39:46.071Z,19.77
2023-01-06T13:42:26.967Z,19.67
2023-01-06T13:45:00.851Z,17.20
2023-01-06T13:47:27.795Z,20.00
2023-01-06T13:49:54.712Z,19.63
2023-01-06T13:52:34.868Z,19.05
2023-01-06T13:55:11.829Z,19.95
2023-01-06T13:57:39.376Z,24.13
2023-01-06T14:00:12.781Z,23.10
2023-01-06T14:02:40.799Z,18.02
2023-01-06T14:05:28.833Z,17.92
2023-01-06T14:08:00.623Z,21.25
2023-01-06T14:10:52.829Z,18.38
2023-01-06T14:13:32.832Z,18.25
2023-01-06T14:16:12.060Z,23.45
2023-01-06T14:18:56.792Z,19.85
2023-01-06T14:21:29.975Z,20.50
2023-01-06T14:24:14.830Z,17.30
2023-01-06T14:27:02.847Z,20.02
2023-01-06T14:29:45.450Z,20.00
2023-01-06T14:32:21.885Z,18.00
2023-01-06T14:35:09.872Z,19.40
2023-01-06T14:38:11.825Z,16.83
2023-01-06T14:40:47.894Z,17.30
2023-01-06T14:43:40.889Z,16.10
2023-01-06T14:46:36.911Z,18.50
2023-01-06T14:49:12.840Z,16.73
2023-01-06T14:51:47.811Z,16.02
2023-01-06T14:54:38.583Z,15.75
2023-01-06T14:57:11.862Z,14.50
2023-01-06T14:59:38.791Z,14.82
2023-01-06T15:02:23.075Z,30.55
2023-01-06T15:04:50.106Z,27.08
2023-01-06T15:07:27.879Z,21.00
2023-01-06T15:10:15.922Z,23.85
2023-01-06T15:12:46.653Z,27.20
2023-01-06T15:15:36.867Z,24.05
2023-01-06T15:18:03.886Z,21.98
2023-01-06T15:20:47.017Z,23.35
2023-01-06T15:23:19.081Z,22.98
2023-01-06T15:25:56.399Z,20.08
2023-01-06T15:28:31.943Z,21.08
2023-01-06T15:31:05.984Z,19.75
2023-01-06T15:33:47.892Z,19.70
2023-01-06T15:36:20.494Z,21.67
2023-01-06T15:38:54.078Z,19.05
2023-01-06T15:41:22.330Z,18.27
2023-01-06T15:43:55.864Z,11.88
2023-01-06T15:46:22.793Z,11.45
2023-01-06T15:48:56.406Z,12.82
2023-01-06T15:51:23.399Z,12.07
2023-01-06T15:54:04.307Z,15.93
2023-01-06T15:56:31.781Z,15.02
2023-01-06T15:58:58.974Z,12.02
2023-01-06T16:01:33.816Z,14.55
2023-01-06T16:04:00.822Z,16.85
2023-01-06T16:06:41.936Z,15.68
2023-01-06T16:09:27.917Z,18.05
2023-01-06T16:12:25.874Z,14.00
2023-01-06T16:14:58.876Z,16.20
2023-01-06T16:17:31.710Z,14.68
2023-01-06T16:20:07.180Z,13.20
2023-01-06T16:22:49.177Z,15.45
2023-01-06T16:25:32.919Z,12.05
2023-01-06T16:28:04.776Z,14.15
2023-01-06T16:30:41.952Z,15.93
2023-01-06T16:33:48.969Z,16.33
2023-01-06T16:36:17.694Z,15.95
2023-01-06T16:38:46.273Z,15.63
2023-01-06T16:41:24.913Z,14.40
2023-01-06T16:43:51.915Z,15.23
2023-01-06T16:46:30.026Z,19.83
2023-01-06T16:49:00.951Z,18.55
2023-01-06T16:51:28.717Z,15.75
2023-01-06T16:54:03.025Z,27.55
2023-01-06T16:56:31.180Z,22.50
2023-01-06T16:59:06.298Z,15.13
2023-01-06T17:01:34.706Z,14.68
2023-01-06T17:04:07.927Z,13.57
2023-01-06T17:06:35.850Z,19.17
2023-01-06T17:09:09.960Z,19.40
2023-01-06T17:11:36.843Z,17.38
2023-01-06T17:14:09.211Z,18.38
2023-01-06T17:16:46.144Z,17.08
2023-01-06T17:19:31.818Z,23.33
2023-01-06T17:22:21.507Z,17.20
2023-01-06T17:24:55.468Z,15.38
2023-01-06T17:27:26.036Z,16.02
2023-01-06T17:30:00.946Z,13.30
2023-01-06T17:32:45.013Z,19.52
2023-01-06T17:35:30.435Z,19.38
2023-01-06T17:38:08.975Z,14.57
2023-01-06T17:40:39.719Z,16.80
2023-01-06T17:43:38.927Z,15.80
2023-01-06T17:46:35.985Z,16.50
2023-01-06T17:49:37.039Z,16.77
2023-01-06T17:52:37.824Z,17.38
2023-01-06T17:55:32.982Z,22.75
2023-01-06T17:58:07.043Z,19.50
2023-01-06T18:00:36.188Z,19.38
2023-01-06T18:03:06.322Z,18.20
2023-01-06T18:05:42.177Z,17.58
2023-01-06T18:08:09.905Z,21.85
2023-01-06T18:10:57.043Z,22.95
2023-01-06T18:13:40.421Z,23.80
2023-01-06T18:16:42.322Z,20.08
2023-01-06T18:23:45.446Z,21.20
2023-01-06T18:26:42.420Z,18.00
2023-01-06T18:29:24.488Z,18.35
2023-01-06T18:31:59.391Z,21.23
2023-01-06T18:34:32.140Z,18.38
2023-01-06T18:37:08.023Z,17.35
2023-01-06T18:39:53.078Z,18.25
2023-01-06T18:42:44.518Z,17.08
2023-01-06T18:45:38.001Z,17.65
2023-01-06T18:48:38.424Z,20.88
2023-01-06T18:51:21.515Z,18.50
2023-01-06T18:53:56.092Z,18.80
2023-01-06T18:56:31.099Z,18.23
2023-01-06T18:58:58.564Z,21.27
2023-01-06T19:01:52.030Z,20.88
2023-01-06T19:04:42.721Z,19.30
2023-01-06T19:07:27.733Z,19.75
2023-01-06T19:10:01.021Z,20.98
2023-01-06T19:12:34.471Z,22.50
2023-01-06T19:15:21.026Z,18.60
2023-01-06T19:17:48.020Z,23.00
2023-01-06T19:20:31.991Z,28.58
2023-01-06T19:22:58.859Z,28.17
2023-01-06T19:25:44.015Z,23.55
2023-01-06T19:28:32.016Z,23.27
2023-01-06T19:31:11.997Z,20.55
2023-01-06T19:33:46.893Z,22.77
2023-01-06T19:36:48.082Z,18.67
2023-01-06T19:39:30.001Z,21.58
2023-01-06T19:42:11.883Z,20.73
2023-01-06T19:44:44.998Z,19.55
2023-01-06T19:47:36.996Z,19.98
2023-01-06T19:50:19.216Z,19.15
2023-01-06T19:52:52.992Z,21.02
2023-01-06T19:55:30.596Z,21.20
2023-01-06T19:58:25.991Z,20.80
2023-01-06T20:00:52.938Z,24.23
2023-01-06T20:03:36.976Z,24.20
2023-01-06T20:06:04.230Z,23.42
2023-01-06T20:08:37.998Z,21.30
2023-01-06T20:11:12.021Z,21.20
2023-01-06T20:13:38.945Z,24.40
2023-01-06T20:16:13.075Z,21.13
2023-01-06T20:18:40.014Z,21.25
2023-01-06T20:21:13.034Z,22.67
2023-01-06T20:23:39.884Z,22.42
2023-01-06T20:26:06.766Z,22.25
2023-01-06T20:28:40.029Z,24.63
2023-01-06T20:31:06.909Z,23.92
2023-01-06T20:33:40.036Z,27.10
2023-01-06T20:36:08.037Z,21.38
2023-01-06T20:38:35.074Z,21.05
2023-01-06T20:41:08.064Z,18.73
2023-01-06T20:43:35.001Z,19.73
2023-01-06T20:46:02.036Z,19.95
2023-01-06T20:48:35.052Z,24.58
2023-01-06T20:51:02.120Z,18.23
2023-01-06T20:53:35.032Z,20.95
2023-01-06T20:56:01.908Z,20.38
2023-01-06T20:58:28.804Z,20.65
2023-01-06T21:01:02.122Z,21.02
2023-01-06T21:03:29.082Z,22.40
2023-01-06T21:06:02.090Z,24.17
2023-01-06T21:08:29.031Z,23.05
2023-01-06T21:10:55.960Z,21.77
2023-01-06T21:13:29.076Z,20.65
2023-01-06T21:16:02.067Z,20.30
2023-01-06T21:18:47.002Z,22.90
2023-01-06T21:21:13.915Z,20.17
2023-01-06T21:23:47.071Z,24.52
2023-01-06T21:26:13.987Z,23.05
2023-01-06T21:28:47.062Z,21.02
2023-01-06T21:31:14.044Z,19.88
2023-01-06T21:33:48.543Z,21.67
2023-01-06T21:36:18.076Z,21.17
2023-01-06T21:38:45.592Z,21.70
2023-01-06T21:41:19.345Z,21.27
2023-01-06T21:43:47.100Z,23.02
2023-01-06T21:46:22.322Z,23.25
2023-01-06T21:48:49.783Z,24.25
2023-01-06T21:51:25.004Z,21.23
2023-01-06T21:53:59.053Z,21.90
2023-01-06T21:56:26.003Z,22.17
2023-01-06T21:59:00.134Z,21.27
2023-01-06T22:01:34.223Z,20.83
2023-01-06T22:04:08.173Z,21.45
2023-01-06T22:06:43.195Z,21.70
2023-01-06T22:09:12.275Z,20.55
2023-01-06T22:11:46.142Z,24.10
2023-01-06T22:14:14.055Z,21.08
2023-01-06T22:16:42.051Z,20.35
2023-01-06T22:19:20.230Z,23.25
2023-01-06T22:21:48.111Z,21.38
2023-01-06T22:24:23.003Z,23.50
2023-01-06T22:26:51.071Z,22.27
2023-01-06T22:29:31.151Z,20.65
2023-01-06T22:32:05.042Z,21.95
2023-01-06T22:34:39.139Z,23.30
2023-01-06T22:37:07.271Z,22.30
2023-01-06T22:39:42.196Z,24.00
2023-01-06T22:42:16.174Z,23.60
2023-01-06T22:44:50.122Z,24.58
2023-01-06T22:47:24.527Z,25.15
2023-01-06T22:50:03.597Z,25.48
2023-01-06T22:52:36.101Z,24.05
2023-01-06T22:57:58.340Z,22.42
2023-01-06T23:00:35.342Z,23.35
2023-01-06T23:03:02.371Z,24.52
2023-01-06T23:05:36.144Z,23.25
2023-01-06T23:08:03.896Z,27.92
2023-01-06T23:10:37.137Z,25.13
2023-01-06T23:13:04.082Z,23.25
2023-01-06T23:15:37.173Z,23.88
2023-01-06T23:18:04.751Z,24.27
2023-01-06T23:20:32.920Z,24.50
2023-01-06T23:23:07.709Z,23.38
2023-01-06T23:25:34.626Z,27.10
2023-01-06T23:28:01.874Z,27.77
2023-01-06T23:30:36.681Z,26.38
2023-01-06T23:33:12.031Z,23.50
2023-01-06T23:35:39.042Z,26.08
2023-01-06T23:38:06.828Z,24.88
2023-01-06T23:40:40.094Z,26.38
2023-01-06T23:43:07.394Z,27.50
2023-01-06T23:45:34.782Z,26.10
2023-01-06T23:48:09.093Z,27.33
2023-01-06T23:50:36.069Z,25.20
2023-01-06T23:53:10.916Z,23.70
2023-01-06T23:55:38.182Z,24.88
2023-01-06T23:58:11.885Z,28.38
